首页
METAR-TAF:

METAR-TAF

机场 :

羅蘭加洛斯機場

圣但尼, 留尼汪岛

纬度: 20-53S, 经度: 055-31E, 海拔: 21米

当前天气观测

该预报发布于33分钟前的09:30 UTC
风速8节,风向西北
温度 25°C
湿度 89%
气压 1015 hPa
能见度10公里或以上
多云层高于2500英尺
阴天层高于3000英尺

METAR: FMEE 160930Z AUTO 32008KT 9999 BKN025 OVC030 25/23 Q1015 NOSIG

时间: 14:03 (10:03 UTC)

预报

该预报发布于5小时和3分钟前的05:00 UTC
预报有效从16日的 06点(UTC)到 17日的 12点(UTC)
风速8节,风向西转西北
能见度10公里或以上
散云层高于2300英尺
多云层高于4000英尺
短暂存在
从 16日的 12点(UTC)到 16日的 15点(UTC)
风速10节,风向东转东南
成为
从 16日的 15点(UTC)到 16日的 17点(UTC)
风速5节,风向
成为
从 17日的 05点(UTC)到 17日的 07点(UTC)
风速10节,风向

TAF: FMEE 160500Z 1606/1712 30008KT 9999 SCT023 BKN040 TEMPO 1612/1615 12010KT BECMG 1615/1617 18005KT BECMG 1705/1707 36010KT

超过4000个机场的气象观测和天气预报(METAR&TAF报告)。

可查询的气象台以黄色和红色小点在地图上表示。

将鼠标移到小点上方,可查看气象台名称。

然后点击查看天气观测和预报。

如需切换地图:点击带黑十字的绿色按钮放大地图;点击带横线的绿色按钮缩小地图;或者点击绿色箭头查看邻近地区的地图。


METAR-TAF: